Time;durP1;ratioP1;P1;durP2;ratioP2;P2;SDS_P1;SDS_P2;PMS_P1;PMS_P2;Temp;Humidity;BMP_temperature;BMP_pressure;BME280_temperature;BME280_humidity;BME280_pressure;Samples;Min_cycle;Max_cycle;Signal;HPM_P1;HPM_P2
2023/03/28 00:00:29;;;;;;;2.72;1.90;;;;;;;;;;5119949;28;20036;-90
2023/03/28 00:02:55;;;;;;;3.42;2.15;;;;;;;;;;5120005;28;20048;-89
2023/03/28 00:05:22;;;;;;;5.63;2.20;;;;;;;;;;5119624;28;20111;-91
2023/03/28 00:07:49;;;;;;;3.45;1.92;;;;;;;;;;5119418;28;20081;-92
2023/03/28 00:10:15;;;;;;;3.95;2.15;;;;;;;;;;5100992;28;20039;-91
2023/03/28 00:12:42;;;;;;;6.55;2.22;;;;;;;;;;5118529;28;20046;-91
2023/03/28 00:18:12;;;;;;;4.25;2.10;;;;;;;;;;5119514;28;20030;-92
2023/03/28 00:20:39;;;;;;;6.82;2.30;;;;;;;;;;5118912;28;20047;-92
2023/03/28 00:23:05;;;;;;;4.63;2.50;;;;;;;;;;5100416;28;20039;-92
2023/03/28 00:25:35;;;;;;;4.68;2.22;;;;;;;;;;5119351;28;20015;-91
2023/03/28 00:28:01;;;;;;;8.55;3.70;;;;;;;;;;5101210;28;20024;-92
2023/03/28 00:33:30;;;;;;;4.07;2.20;;;;;;;;;;5118732;28;20463;-91
2023/03/28 00:35:57;;;;;;;6.15;2.72;;;;;;;;;;5100707;28;20080;-91
2023/03/28 00:38:23;;;;;;;3.22;1.90;;;;;;;;;;5100811;28;20031;-91
2023/03/28 00:40:49;;;;;;;3.30;2.10;;;;;;;;;;5101028;28;20489;-91
2023/03/28 00:43:15;;;;;;;4.63;2.65;;;;;;;;;;5119369;28;20045;-91
2023/03/28 00:45:41;;;;;;;4.05;2.38;;;;;;;;;;5119234;28;20020;-91
2023/03/28 00:48:12;;;;;;;3.17;2.10;;;;;;;;;;5100404;28;20051;-90
2023/03/28 00:50:41;;;;;;;3.25;1.98;;;;;;;;;;5100790;28;20035;-89
2023/03/28 00:53:12;;;;;;;3.65;2.25;;;;;;;;;;5118576;28;20152;-90
2023/03/28 00:55:51;;;;;;;5.23;1.97;;;;;;;;;;5100762;28;20354;-93
2023/03/28 00:58:22;;;;;;;4.43;2.13;;;;;;;;;;5118596;28;20673;-90
2023/03/28 01:01:07;;;;;;;3.95;2.40;;;;;;;;;;5100744;28;20405;-90
2023/03/28 01:03:34;;;;;;;4.53;1.77;;;;;;;;;;5118646;28;20031;-90
2023/03/28 01:06:05;;;;;;;3.92;2.05;;;;;;;;;;5082176;28;20028;-91
2023/03/28 01:08:33;;;;;;;2.78;1.95;;;;;;;;;;5118304;28;20028;-91
2023/03/28 01:11:00;;;;;;;2.83;1.83;;;;;;;;;;5100996;28;20036;-91
2023/03/28 01:13:30;;;;;;;4.20;2.05;;;;;;;;;;5118070;28;20024;-94
2023/03/28 01:19:01;;;;;;;2.92;1.80;;;;;;;;;;5118199;28;20051;-90
2023/03/28 01:21:36;;;;;;;2.60;1.73;;;;;;;;;;5117993;28;20019;-90
2023/03/28 01:24:12;;;;;;;4.35;2.10;;;;;;;;;;5118170;28;20031;-91
2023/03/28 01:26:41;;;;;;;2.75;1.58;;;;;;;;;;5118238;28;20028;-90
2023/03/28 01:29:25;;;;;;;4.60;2.20;;;;;;;;;;5118080;28;20031;-91
2023/03/28 01:32:10;;;;;;;3.33;2.13;;;;;;;;;;5099712;28;20366;-90
2023/03/28 01:34:42;;;;;;;3.95;2.13;;;;;;;;;;5099896;28;20024;-90
2023/03/28 01:37:28;;;;;;;4.43;1.70;;;;;;;;;;5117876;28;20020;-91
2023/03/28 01:40:00;;;;;;;3.72;2.00;;;;;;;;;;5117779;28;20051;-91
2023/03/28 01:42:45;;;;;;;6.78;1.90;;;;;;;;;;5118160;28;20115;-91
2023/03/28 01:45:35;;;;;;;3.60;2.00;;;;;;;;;;5100267;28;20028;-92
2023/03/28 01:48:19;;;;;;;4.25;1.92;;;;;;;;;;5118296;28;20105;-90
2023/03/28 01:51:08;;;;;;;3.13;1.80;;;;;;;;;;5118248;28;20019;-92
2023/03/28 01:53:34;;;;;;;3.53;1.92;;;;;;;;;;5118145;28;20047;-91
2023/03/28 01:56:08;;;;;;;6.07;2.22;;;;;;;;;;5117867;28;20036;-91
2023/03/28 01:58:46;;;;;;;3.42;1.63;;;;;;;;;;5118173;28;20031;-91
2023/03/28 02:04:50;;;;;;;4.75;2.00;;;;;;;;;;5118285;28;20027;-93
2023/03/28 02:07:17;;;;;;;2.97;1.88;;;;;;;;;;5117468;28;20409;-92
2023/03/28 02:09:46;;;;;;;3.30;1.83;;;;;;;;;;5117687;28;20432;-91
2023/03/28 02:12:15;;;;;;;4.22;2.42;;;;;;;;;;5117466;28;20115;-92
2023/03/28 02:14:43;;;;;;;4.38;1.98;;;;;;;;;;5117965;28;20454;-91
2023/03/28 02:17:14;;;;;;;3.80;1.80;;;;;;;;;;5099794;28;20031;-91
2023/03/28 02:19:44;;;;;;;3.60;2.15;;;;;;;;;;5099257;28;20032;-91
2023/03/28 02:22:26;;;;;;;5.32;2.00;;;;;;;;;;5099579;28;20115;-90
2023/03/28 02:24:52;;;;;;;4.85;2.30;;;;;;;;;;5112697;28;20024;-91
2023/03/28 02:27:19;;;;;;;7.88;4.32;;;;;;;;;;5078949;28;20040;-90
2023/03/28 02:29:46;;;;;;;4.38;2.20;;;;;;;;;;5097279;28;20031;-91
2023/03/28 02:35:17;;;;;;;3.10;1.92;;;;;;;;;;5117185;28;20023;-90
2023/03/28 02:37:53;;;;;;;3.58;1.98;;;;;;;;;;5102328;28;20359;-91
2023/03/28 02:40:35;;;;;;;4.10;2.38;;;;;;;;;;5120978;28;20044;-90
2023/03/28 02:43:20;;;;;;;3.73;1.90;;;;;;;;;;5121106;28;20417;-91
2023/03/28 02:45:54;;;;;;;5.38;2.38;;;;;;;;;;5103238;28;20738;-90
2023/03/28 02:48:33;;;;;;;3.38;2.20;;;;;;;;;;5120778;28;20027;-90
2023/03/28 02:51:17;;;;;;;4.63;2.17;;;;;;;;;;5100682;28;20070;-92
2023/03/28 02:53:59;;;;;;;5.53;2.10;;;;;;;;;;5120104;28;20028;-92
2023/03/28 02:56:35;;;;;;;2.83;1.77;;;;;;;;;;5121116;28;20016;-92
2023/03/28 02:59:06;;;;;;;4.78;2.00;;;;;;;;;;5120918;28;20321;-92
2023/03/28 03:01:35;;;;;;;4.63;1.80;;;;;;;;;;5102086;28;20036;-91
2023/03/28 03:04:01;;;;;;;3.55;1.90;;;;;;;;;;5105782;28;20310;-91
2023/03/28 03:06:27;;;;;;;4.68;2.30;;;;;;;;;;5120870;28;20020;-91
2023/03/28 03:08:53;;;;;;;5.43;2.00;;;;;;;;;;5102879;28;20039;-90
2023/03/28 03:11:20;;;;;;;3.47;2.33;;;;;;;;;;5102555;28;20142;-91
2023/03/28 03:13:46;;;;;;;4.18;1.60;;;;;;;;;;5102382;28;20431;-90
2023/03/28 03:19:16;;;;;;;3.25;2.10;;;;;;;;;;5120556;28;20037;-91
2023/03/28 03:21:42;;;;;;;4.60;2.10;;;;;;;;;;5102644;28;20042;-92
2023/03/28 03:24:08;;;;;;;4.93;2.00;;;;;;;;;;5120363;28;20035;-91
2023/03/28 03:26:35;;;;;;;3.63;2.13;;;;;;;;;;5120497;28;20060;-91
2023/03/28 03:29:01;;;;;;;4.13;1.90;;;;;;;;;;5120591;28;20050;-90
2023/03/28 03:37:35;;;;;;;3.25;1.98;;;;;;;;;;5119935;28;20033;-91
2023/03/28 03:40:01;;;;;;;4.38;2.25;;;;;;;;;;5119378;28;20040;-91
2023/03/28 03:42:27;;;;;;;8.40;4.03;;;;;;;;;;5102331;28;20066;-93
2023/03/28 03:44:53;;;;;;;4.95;2.80;;;;;;;;;;5119588;28;20031;-93
2023/03/28 03:47:19;;;;;;;4.32;2.28;;;;;;;;;;5120110;28;20032;-91
2023/03/28 03:49:45;;;;;;;5.30;2.03;;;;;;;;;;5119499;28;20020;-84
2023/03/28 03:52:12;;;;;;;5.50;1.90;;;;;;;;;;5119201;28;20047;-79
2023/03/28 03:54:38;;;;;;;4.25;1.75;;;;;;;;;;5118434;28;20299;-79
2023/03/28 03:57:04;;;;;;;4.15;1.90;;;;;;;;;;5119034;28;20035;-80
2023/03/28 03:59:30;;;;;;;5.65;2.30;;;;;;;;;;5119123;28;20036;-80
2023/03/28 04:01:56;;;;;;;5.43;2.10;;;;;;;;;;5119061;28;20035;-80
2023/03/28 04:04:22;;;;;;;5.00;2.20;;;;;;;;;;5100806;28;20030;-80
2023/03/28 04:06:48;;;;;;;3.65;1.98;;;;;;;;;;5100859;28;20030;-81
2023/03/28 04:09:14;;;;;;;2.13;1.65;;;;;;;;;;5119137;28;20032;-79
2023/03/28 04:11:40;;;;;;;4.72;2.05;;;;;;;;;;5100446;28;20040;-78
2023/03/28 04:14:06;;;;;;;4.70;2.20;;;;;;;;;;5119135;28;20024;-80
2023/03/28 04:16:36;;;;;;;5.28;2.67;;;;;;;;;;5100736;28;20024;-80
2023/03/28 04:19:02;;;;;;;6.63;2.60;;;;;;;;;;5118773;28;20035;-79
2023/03/28 04:21:30;;;;;;;6.30;2.40;;;;;;;;;;5118785;28;20020;-80
2023/03/28 04:24:00;;;;;;;6.15;2.10;;;;;;;;;;5118590;28;20023;-79
2023/03/28 04:26:26;;;;;;;4.80;2.10;;;;;;;;;;5118701;28;20028;-79
2023/03/28 04:28:53;;;;;;;5.63;2.83;;;;;;;;;;5118683;28;20028;-81
2023/03/28 04:31:20;;;;;;;5.43;2.70;;;;;;;;;;5100011;28;20058;-78
2023/03/28 04:33:46;;;;;;;7.82;3.13;;;;;;;;;;5118315;28;20473;-79
2023/03/28 04:36:15;;;;;;;4.25;2.63;;;;;;;;;;5100455;28;20023;-81
2023/03/28 04:38:44;;;;;;;5.93;3.20;;;;;;;;;;5118124;28;20051;-80
2023/03/28 04:41:10;;;;;;;4.55;2.72;;;;;;;;;;5118405;28;20027;-81
2023/03/28 04:43:36;;;;;;;5.93;2.80;;;;;;;;;;5118196;28;20016;-80
2023/03/28 04:46:02;;;;;;;7.68;3.28;;;;;;;;;;5099850;28;20039;-80
2023/03/28 04:48:28;;;;;;;6.22;3.30;;;;;;;;;;5118171;28;20389;-80
2023/03/28 04:50:55;;;;;;;5.68;3.28;;;;;;;;;;5118205;28;20397;-80
2023/03/28 04:53:21;;;;;;;8.10;3.63;;;;;;;;;;5099791;28;20055;-78
2023/03/28 04:55:51;;;;;;;8.13;3.63;;;;;;;;;;5118010;28;20035;-80
2023/03/28 04:58:18;;;;;;;6.55;3.70;;;;;;;;;;5117986;28;20035;-80
2023/03/28 05:00:44;;;;;;;6.55;4.10;;;;;;;;;;5117570;28;20024;-80
2023/03/28 05:03:17;;;;;;;11.77;5.82;;;;;;;;;;5099887;28;20020;-79
2023/03/28 05:05:43;;;;;;;9.43;4.55;;;;;;;;;;5098959;28;20023;-80
2023/03/28 05:08:09;;;;;;;6.93;4.47;;;;;;;;;;5099944;28;20173;-81
2023/03/28 05:10:35;;;;;;;8.35;4.70;;;;;;;;;;5117238;28;20036;-79
2023/03/28 05:13:01;;;;;;;6.75;4.60;;;;;;;;;;5099963;28;20027;-79
2023/03/28 05:15:27;;;;;;;8.77;5.72;;;;;;;;;;5118089;28;20024;-81
2023/03/28 05:17:53;;;;;;;6.10;4.18;;;;;;;;;;5099722;28;20020;-80
2023/03/28 05:20:19;;;;;;;7.75;4.70;;;;;;;;;;5117628;28;20036;-80
2023/03/28 05:22:46;;;;;;;8.85;4.03;;;;;;;;;;5117935;28;20030;-80
2023/03/28 05:25:12;;;;;;;7.18;4.03;;;;;;;;;;5117612;28;20070;-81
2023/03/28 05:27:38;;;;;;;9.07;4.53;;;;;;;;;;5117764;28;20301;-79
2023/03/28 05:30:08;;;;;;;6.93;4.47;;;;;;;;;;5117770;28;20037;-79
2023/03/28 05:32:34;;;;;;;7.45;4.25;;;;;;;;;;5117434;28;20409;-79
2023/03/28 05:35:00;;;;;;;6.25;3.97;;;;;;;;;;5117363;28;20046;-80
2023/03/28 05:37:26;;;;;;;9.45;5.07;;;;;;;;;;5117458;28;20024;-80
2023/03/28 05:39:52;;;;;;;6.38;4.13;;;;;;;;;;5117270;28;20056;-80
2023/03/28 05:42:19;;;;;;;9.13;5.13;;;;;;;;;;5117503;28;20091;-81
2023/03/28 05:44:45;;;;;;;7.80;4.40;;;;;;;;;;5099515;28;20458;-79
2023/03/28 05:47:11;;;;;;;7.43;4.40;;;;;;;;;;5117021;28;20059;-81
2023/03/28 05:49:37;;;;;;;7.18;4.25;;;;;;;;;;5117569;28;20028;-80
2023/03/28 05:52:03;;;;;;;8.80;4.47;;;;;;;;;;5117467;28;20031;-80
2023/03/28 05:54:29;;;;;;;9.32;5.25;;;;;;;;;;5098988;28;20609;-81
2023/03/28 05:56:55;;;;;;;7.38;4.25;;;;;;;;;;5117473;28;20405;-80
2023/03/28 05:59:23;;;;;;;6.30;4.72;;;;;;;;;;5117240;28;20389;-79
2023/03/28 06:01:51;;;;;;;8.43;6.00;;;;;;;;;;5117385;28;20106;-80
2023/03/28 06:04:18;;;;;;;8.27;5.18;;;;;;;;;;5117471;28;20024;-81
2023/03/28 06:06:44;;;;;;;6.32;3.97;;;;;;;;;;5099195;28;20356;-81
2023/03/28 06:09:11;;;;;;;13.82;4.78;;;;;;;;;;5117535;28;20024;-80
2023/03/28 06:11:37;;;;;;;10.15;4.88;;;;;;;;;;5118772;28;20420;-81
2023/03/28 06:14:03;;;;;;;8.73;4.70;;;;;;;;;;5102741;28;20425;-80
2023/03/28 06:16:29;;;;;;;9.25;5.85;;;;;;;;;;5121223;28;20287;-80
2023/03/28 06:18:55;;;;;;;16.83;8.15;;;;;;;;;;5121040;28;20023;-79
2023/03/28 06:21:21;;;;;;;8.85;5.45;;;;;;;;;;5103279;28;20027;-79
2023/03/28 06:23:47;;;;;;;8.10;5.07;;;;;;;;;;5121122;28;20035;-80
2023/03/28 06:26:13;;;;;;;8.48;5.30;;;;;;;;;;5120870;28;20031;-80
2023/03/28 06:28:39;;;;;;;6.65;5.30;;;;;;;;;;5118157;27;20079;-80
2023/03/28 06:31:05;;;;;;;8.40;5.50;;;;;;;;;;5141363;27;20030;-80
2023/03/28 06:33:31;;;;;;;6.43;4.78;;;;;;;;;;5141290;27;20019;-79
2023/03/28 06:35:57;;;;;;;8.88;4.93;;;;;;;;;;5141360;27;20027;-88
2023/03/28 06:38:24;;;;;;;9.43;5.43;;;;;;;;;;5122734;27;20042;-79
2023/03/28 06:40:50;;;;;;;8.52;5.10;;;;;;;;;;5122962;27;20120;-79
2023/03/28 06:43:16;;;;;;;9.23;5.68;;;;;;;;;;5141470;27;20051;-80
2023/03/28 06:45:42;;;;;;;11.02;5.30;;;;;;;;;;5141129;27;20031;-80
2023/03/28 06:48:08;;;;;;;7.43;5.25;;;;;;;;;;5122837;27;20027;-79
2023/03/28 06:50:34;;;;;;;8.63;6.20;;;;;;;;;;5122937;27;20019;-80
2023/03/28 06:53:00;;;;;;;8.48;6.75;;;;;;;;;;5141022;27;20059;-80
2023/03/28 06:55:27;;;;;;;10.63;5.43;;;;;;;;;;5122768;27;20027;-79
2023/03/28 06:57:53;;;;;;;6.53;4.30;;;;;;;;;;5140907;27;20036;-80
2023/03/28 07:00:19;;;;;;;9.82;5.70;;;;;;;;;;5141076;27;20057;-80
2023/03/28 07:02:45;;;;;;;15.63;8.63;;;;;;;;;;5141057;27;20019;-79
2023/03/28 07:05:11;;;;;;;7.45;6.00;;;;;;;;;;5122752;27;20019;-79
2023/03/28 07:07:37;;;;;;;6.63;5.15;;;;;;;;;;5122562;27;20293;-80
2023/03/28 07:10:04;;;;;;;13.18;6.40;;;;;;;;;;5122286;27;20031;-79
2023/03/28 07:12:30;;;;;;;12.93;6.82;;;;;;;;;;5140488;27;20034;-86
2023/03/28 07:14:56;;;;;;;9.00;5.18;;;;;;;;;;5140617;27;20106;-79
2023/03/28 07:17:22;;;;;;;13.23;7.88;;;;;;;;;;5140273;27;20420;-80
2023/03/28 07:19:49;;;;;;;14.73;9.25;;;;;;;;;;5122128;27;20027;-79
2023/03/28 07:22:18;;;;;;;15.18;8.88;;;;;;;;;;5140213;27;20076;-80
2023/03/28 07:24:44;;;;;;;17.50;9.48;;;;;;;;;;5140267;27;20106;-80
2023/03/28 07:27:10;;;;;;;8.90;5.05;;;;;;;;;;5140593;27;20039;-78
2023/03/28 07:29:36;;;;;;;9.57;7.55;;;;;;;;;;5140384;27;20068;-79
2023/03/28 07:32:02;;;;;;;7.57;5.10;;;;;;;;;;5140230;27;20058;-78
2023/03/28 07:34:29;;;;;;;17.10;6.55;;;;;;;;;;5122006;27;20031;-79
2023/03/28 07:36:55;;;;;;;7.63;5.20;;;;;;;;;;5140102;27;20046;-78
2023/03/28 07:39:22;;;;;;;7.95;5.43;;;;;;;;;;5139898;27;20050;-79
2023/03/28 07:41:48;;;;;;;6.80;5.30;;;;;;;;;;5140009;27;20309;-78
2023/03/28 07:44:14;;;;;;;12.80;5.32;;;;;;;;;;5140108;27;20304;-79
2023/03/28 07:46:40;;;;;;;7.20;5.45;;;;;;;;;;5121816;27;20027;-80
2023/03/28 07:49:07;;;;;;;7.55;5.65;;;;;;;;;;5140172;27;20023;-79
2023/03/28 07:51:33;;;;;;;6.63;4.15;;;;;;;;;;5121828;27;20031;-78
2023/03/28 07:54:00;;;;;;;6.82;4.90;;;;;;;;;;5139924;27;20026;-78
2023/03/28 07:56:26;;;;;;;6.47;4.28;;;;;;;;;;5121709;27;20420;-78
2023/03/28 07:58:53;;;;;;;9.77;6.63;;;;;;;;;;5139597;27;20034;-79
2023/03/28 08:01:21;;;;;;;6.25;4.50;;;;;;;;;;5139807;27;20054;-78
2023/03/28 08:03:47;;;;;;;6.65;4.45;;;;;;;;;;5139724;27;20027;-78
2023/03/28 08:06:14;;;;;;;6.22;4.35;;;;;;;;;;5121656;27;20309;-78
2023/03/28 08:08:40;;;;;;;10.45;6.20;;;;;;;;;;5139722;27;20443;-78
2023/03/28 08:11:06;;;;;;;4.53;3.70;;;;;;;;;;5139363;27;20023;-78
2023/03/28 08:13:33;;;;;;;11.63;7.15;;;;;;;;;;5121209;27;20039;-78
2023/03/28 08:15:59;;;;;;;5.55;3.58;;;;;;;;;;5139625;27;20019;-80
2023/03/28 08:18:25;;;;;;;12.15;5.65;;;;;;;;;;5139201;27;20304;-79
2023/03/28 08:20:57;;;;;;;8.48;4.95;;;;;;;;;;5121319;27;20118;-78
2023/03/28 08:23:23;;;;;;;11.13;4.68;;;;;;;;;;5115961;28;20047;-78
2023/03/28 08:26:07;;;;;;;4.93;3.00;;;;;;;;;;5118551;28;20213;-79
2023/03/28 08:28:34;;;;;;;8.20;4.30;;;;;;;;;;5118333;28;20016;-78
2023/03/28 08:31:00;;;;;;;8.82;4.55;;;;;;;;;;5134480;27;20114;-79
2023/03/28 08:33:27;;;;;;;6.45;4.10;;;;;;;;;;5138568;27;20328;-78
2023/03/28 08:35:54;;;;;;;6.43;4.35;;;;;;;;;;5138632;27;20453;-79
2023/03/28 08:38:20;;;;;;;8.25;4.60;;;;;;;;;;5138741;27;20039;-78
2023/03/28 08:41:05;;;;;;;5.85;3.83;;;;;;;;;;5120549;27;20027;-78
2023/03/28 08:43:53;;;;;;;5.68;3.60;;;;;;;;;;5138759;27;20064;-79
2023/03/28 08:46:21;;;;;;;11.07;4.05;;;;;;;;;;5138722;27;20023;-78
2023/03/28 08:48:48;;;;;;;8.95;4.85;;;;;;;;;;5138658;27;20019;-80
2023/03/28 08:51:35;;;;;;;8.45;4.47;;;;;;;;;;5138727;27;20512;-79
2023/03/28 08:54:11;;;;;;;8.20;4.10;;;;;;;;;;5138651;27;20024;-78
2023/03/28 08:56:41;;;;;;;12.95;3.70;;;;;;;;;;5138644;27;20038;-79
2023/03/28 08:59:11;;;;;;;5.55;3.47;;;;;;;;;;5138256;27;20026;-78
2023/03/28 09:01:38;;;;;;;7.57;3.25;;;;;;;;;;5138483;27;20027;-78
2023/03/28 09:04:05;;;;;;;7.80;3.75;;;;;;;;;;5138334;27;20015;-79
2023/03/28 09:06:36;;;;;;;8.52;4.80;;;;;;;;;;5138600;27;20034;-79
2023/03/28 09:09:21;;;;;;;6.53;3.67;;;;;;;;;;5138804;27;20045;-79
2023/03/28 09:12:06;;;;;;;6.68;2.70;;;;;;;;;;5138504;27;20076;-79
2023/03/28 09:14:35;;;;;;;7.30;3.92;;;;;;;;;;5138615;27;20106;-79
2023/03/28 09:17:01;;;;;;;8.98;4.75;;;;;;;;;;5138323;27;20054;-79
2023/03/28 09:19:46;;;;;;;7.10;3.00;;;;;;;;;;5138186;27;20023;-78
2023/03/28 09:22:15;;;;;;;7.45;3.65;;;;;;;;;;5119964;27;20027;-78
2023/03/28 09:24:42;;;;;;;9.77;5.18;;;;;;;;;;5120067;27;20088;-80
2023/03/28 09:27:44;;;;;;;6.25;3.67;;;;;;;;;;5120000;27;20031;-79
2023/03/28 09:30:12;;;;;;;10.13;4.50;;;;;;;;;;5018847;28;20053;-78
2023/03/28 09:32:39;;;;;;;9.55;3.67;;;;;;;;;;5035089;28;20033;-79
2023/03/28 09:35:13;;;;;;;6.65;3.78;;;;;;;;;;5035002;28;20064;-79
2023/03/28 09:37:43;;;;;;;7.47;3.20;;;;;;;;;;5018174;28;20041;-78
2023/03/28 09:40:36;;;;;;;7.75;3.55;;;;;;;;;;5035147;28;20231;-79
2023/03/28 09:43:02;;;;;;;6.32;3.17;;;;;;;;;;5032785;28;20030;-79
2023/03/28 09:45:31;;;;;;;5.28;3.17;;;;;;;;;;5036364;28;20026;-79
2023/03/28 09:47:57;;;;;;;7.28;2.90;;;;;;;;;;5039254;28;20059;-79
2023/03/28 09:50:23;;;;;;;13.77;5.60;;;;;;;;;;5039264;28;20038;-78
2023/03/28 09:52:50;;;;;;;13.77;5.45;;;;;;;;;;5039028;28;20079;-78
2023/03/28 09:55:18;;;;;;;13.98;4.72;;;;;;;;;;5022460;28;20460;-78
2023/03/28 09:57:59;;;;;;;12.55;5.18;;;;;;;;;;5039106;28;20043;-78
2023/03/28 10:00:25;;;;;;;11.02;4.70;;;;;;;;;;5038932;28;20033;-78
2023/03/28 10:02:53;;;;;;;15.73;6.93;;;;;;;;;;5038911;28;20029;-78
2023/03/28 10:05:39;;;;;;;10.18;4.85;;;;;;;;;;5142168;27;20030;-78
2023/03/28 10:08:24;;;;;;;9.30;3.45;;;;;;;;;;5123836;27;20058;-79
2023/03/28 10:11:00;;;;;;;6.60;3.03;;;;;;;;;;5141832;27;20038;-79
2023/03/28 10:13:27;;;;;;;12.30;3.65;;;;;;;;;;5123624;27;20320;-78
2023/03/28 10:15:56;;;;;;;10.07;3.53;;;;;;;;;;5141838;27;20020;-78
2023/03/28 10:18:26;;;;;;;5.95;2.08;;;;;;;;;;5141719;27;20318;-78
2023/03/28 10:20:52;;;;;;;6.43;2.45;;;;;;;;;;5141603;27;20019;-78
2023/03/28 10:23:20;;;;;;;8.27;3.50;;;;;;;;;;5123358;27;20058;-78
2023/03/28 10:25:50;;;;;;;5.78;2.47;;;;;;;;;;5141290;27;20420;-78
2023/03/28 10:28:20;;;;;;;8.20;3.40;;;;;;;;;;5141514;27;20412;-78
2023/03/28 10:30:54;;;;;;;3.22;1.40;;;;;;;;;;5141166;27;20019;-78
2023/03/28 10:33:23;;;;;;;5.05;1.38;;;;;;;;;;5123155;27;20101;-79
2023/03/28 10:36:04;;;;;;;6.28;2.92;;;;;;;;;;5141343;27;20027;-78
2023/03/28 10:38:38;;;;;;;7.63;2.90;;;;;;;;;;5141229;27;20053;-78
2023/03/28 10:41:06;;;;;;;9.07;2.72;;;;;;;;;;5141417;27;20027;-78
2023/03/28 10:43:34;;;;;;;11.60;4.38;;;;;;;;;;5141404;27;20019;-79
2023/03/28 10:46:06;;;;;;;7.40;3.50;;;;;;;;;;5122885;27;20031;-79
2023/03/28 10:48:35;;;;;;;14.70;4.53;;;;;;;;;;5141417;27;20375;-85
2023/03/28 10:51:07;;;;;;;11.55;4.13;;;;;;;;;;5141410;27;20083;-80
2023/03/28 10:53:42;;;;;;;5.60;1.80;;;;;;;;;;5122806;27;20363;-77
2023/03/28 10:56:26;;;;;;;11.20;3.17;;;;;;;;;;5140982;27;20043;-77
2023/03/28 10:59:01;;;;;;;9.65;3.63;;;;;;;;;;5140444;27;20105;-77
2023/03/28 11:01:46;;;;;;;15.80;5.68;;;;;;;;;;5141061;27;20027;-77
2023/03/28 11:04:18;;;;;;;12.02;3.47;;;;;;;;;;5140926;27;20099;-77
2023/03/28 11:06:48;;;;;;;14.90;4.63;;;;;;;;;;5141012;27;20401;-77
2023/03/28 11:09:22;;;;;;;17.02;5.60;;;;;;;;;;5140964;27;20027;-77
2023/03/28 11:11:51;;;;;;;28.63;7.97;;;;;;;;;;5140640;27;20031;-77
2023/03/28 11:14:28;;;;;;;8.38;3.60;;;;;;;;;;5122455;27;20019;-77
2023/03/28 11:17:03;;;;;;;8.98;3.92;;;;;;;;;;5140595;27;20114;-77
2023/03/28 11:19:41;;;;;;;10.93;3.10;;;;;;;;;;5140527;27;20027;-77
2023/03/28 11:22:26;;;;;;;11.05;4.70;;;;;;;;;;5122312;27;20038;-77
2023/03/28 11:25:10;;;;;;;7.13;2.22;;;;;;;;;;5140422;27;20023;-77
2023/03/28 11:27:36;;;;;;;13.32;5.35;;;;;;;;;;5135143;27;20023;-76
2023/03/28 11:30:04;;;;;;;6.80;2.58;;;;;;;;;;5119932;28;20036;-76
2023/03/28 11:32:50;;;;;;;14.38;4.90;;;;;;;;;;5101186;28;20097;-77
2023/03/28 11:35:30;;;;;;;15.05;4.22;;;;;;;;;;5101017;28;20027;-77
2023/03/28 11:37:56;;;;;;;13.57;6.22;;;;;;;;;;5119393;27;20116;-77
2023/03/28 11:40:24;;;;;;;13.80;4.80;;;;;;;;;;5119067;28;20164;-77
2023/03/28 11:42:54;;;;;;;14.50;6.53;;;;;;;;;;5100528;28;20031;-77
2023/03/28 11:45:26;;;;;;;8.68;4.30;;;;;;;;;;5101515;28;20019;-77
2023/03/28 11:48:04;;;;;;;5.18;1.95;;;;;;;;;;5119595;28;20016;-77
2023/03/28 11:50:42;;;;;;;8.48;4.20;;;;;;;;;;5119320;28;20040;-77
2023/03/28 11:53:12;;;;;;;9.95;3.20;;;;;;;;;;5119255;28;20027;-77
2023/03/28 11:55:48;;;;;;;13.27;4.80;;;;;;;;;;5100576;28;20389;-77
2023/03/28 11:58:21;;;;;;;9.13;2.20;;;;;;;;;;5119432;28;20019;-77
2023/03/28 12:01:00;;;;;;;7.30;1.25;;;;;;;;;;5119081;28;20031;-78
2023/03/28 12:03:29;;;;;;;9.75;2.90;;;;;;;;;;5119261;28;20096;-78
2023/03/28 12:06:06;;;;;;;35.88;11.02;;;;;;;;;;5119077;28;20144;-78
2023/03/28 12:08:39;;;;;;;7.07;1.83;;;;;;;;;;5118079;28;20412;-78
2023/03/28 12:11:05;;;;;;;;;;;;;;;;;;5119558;28;20031;-78
2023/03/28 12:13:43;;;;;;;28.50;7.30;;;;;;;;;;5119059;28;20190;-77
2023/03/28 12:16:12;;;;;;;34.67;9.35;;;;;;;;;;5118993;28;20023;-77
2023/03/28 12:18:57;;;;;;;21.20;6.13;;;;;;;;;;5118661;28;20073;-78
2023/03/28 12:21:32;;;;;;;24.35;7.70;;;;;;;;;;5118644;28;20308;-77
2023/03/28 12:24:12;;;;;;;7.60;2.35;;;;;;;;;;5118315;28;20012;-79
2023/03/28 12:26:58;;;;;;;5.20;1.92;;;;;;;;;;5117362;28;20310;-79
2023/03/28 12:29:35;;;;;;;13.93;1.88;;;;;;;;;;5118053;28;20024;-79
2023/03/28 12:32:21;;;;;;;13.32;6.50;;;;;;;;;;5118267;28;20020;-78
2023/03/28 12:35:04;;;;;;;6.60;2.67;;;;;;;;;;5097489;28;20061;-79
2023/03/28 12:37:50;;;;;;;8.60;1.95;;;;;;;;;;5117001;28;20118;-79
2023/03/28 12:40:22;;;;;;;7.80;2.25;;;;;;;;;;5015010;28;20042;-79
2023/03/28 12:42:48;;;;;;;3.60;1.25;;;;;;;;;;4989398;28;20076;-79
2023/03/28 12:45:37;;;;;;;7.75;2.63;;;;;;;;;;4999605;28;20030;-80
2023/03/28 12:48:05;;;;;;;8.10;2.20;;;;;;;;;;5014670;28;20071;-78
2023/03/28 12:50:33;;;;;;;19.50;3.25;;;;;;;;;;5015482;28;20029;-79
2023/03/28 12:52:59;;;;;;;24.23;3.22;;;;;;;;;;5015953;28;20118;-79
2023/03/28 12:55:25;;;;;;;31.70;3.78;;;;;;;;;;5015492;28;20451;-80
2023/03/28 12:57:53;;;;;;;24.45;4.35;;;;;;;;;;5014809;28;20189;-78
2023/03/28 13:00:25;;;;;;;33.90;4.30;;;;;;;;;;5022341;28;20128;-79
2023/03/28 13:02:54;;;;;;;26.25;3.30;;;;;;;;;;5002960;28;20368;-79
2023/03/28 13:05:33;;;;;;;24.52;3.65;;;;;;;;;;5015541;28;20316;-79
2023/03/28 13:08:17;;;;;;;14.27;1.55;;;;;;;;;;5014937;28;20080;-80
2023/03/28 13:10:58;;;;;;;39.03;1.98;;;;;;;;;;5015671;28;20097;-80
2023/03/28 13:13:27;;;;;;;48.88;3.00;;;;;;;;;;5014365;28;20501;-79
2023/03/28 13:15:53;;;;;;;21.10;2.72;;;;;;;;;;5019480;28;20033;-80
2023/03/28 13:18:20;;;;;;;10.93;1.23;;;;;;;;;;5078205;28;20476;-80
2023/03/28 13:20:52;;;;;;;38.20;2.45;;;;;;;;;;5117538;28;20090;-81
2023/03/28 13:23:21;;;;;;;14.27;1.90;;;;;;;;;;5117857;28;20077;-81
2023/03/28 13:25:54;;;;;;;33.30;2.55;;;;;;;;;;5117445;28;20016;-81
2023/03/28 13:28:28;;;;;;;26.20;3.22;;;;;;;;;;5099237;28;20050;-81
2023/03/28 13:31:08;;;;;;;58.63;3.35;;;;;;;;;;5117617;28;20360;-78
2023/03/28 13:33:38;;;;;;;10.85;2.30;;;;;;;;;;5099183;28;20104;-78
2023/03/28 13:36:04;;;;;;;43.90;4.93;;;;;;;;;;5117825;28;20027;-81
2023/03/28 13:38:30;;;;;;;17.98;3.83;;;;;;;;;;5116973;28;20039;-87
2023/03/28 13:41:05;;;;;;;15.93;3.78;;;;;;;;;;5117960;28;20330;-85
2023/03/28 13:43:40;;;;;;;10.98;2.28;;;;;;;;;;5117685;28;20425;-86
2023/03/28 13:46:06;;;;;;;9.10;2.20;;;;;;;;;;5099785;28;20020;-86
2023/03/28 13:48:35;;;;;;;12.73;2.38;;;;;;;;;;5117733;28;20028;-93
2023/03/28 13:51:05;;;;;;;20.05;2.65;;;;;;;;;;5117407;28;20026;-86
2023/03/28 13:53:31;;;;;;;29.60;2.63;;;;;;;;;;5118095;28;20035;-87
2023/03/28 13:56:17;;;;;;;14.45;3.20;;;;;;;;;;5118004;28;20413;-86
2023/03/28 13:58:44;;;;;;;17.13;2.38;;;;;;;;;;5117840;28;20111;-86
2023/03/28 14:04:19;;;;;;;16.83;4.53;;;;;;;;;;5117666;28;20042;-87
2023/03/28 14:06:45;;;;;;;19.52;3.38;;;;;;;;;;5099502;28;20032;-87
2023/03/28 14:09:18;;;;;;;17.33;3.90;;;;;;;;;;5117836;28;20054;-87
2023/03/28 14:11:44;;;;;;;3.67;2.42;;;;;;;;;;5099246;28;20036;-86
2023/03/28 14:14:15;;;;;;;3.60;1.80;;;;;;;;;;5117993;28;20051;-87
2023/03/28 14:16:42;;;;;;;4.32;2.38;;;;;;;;;;5099782;28;20023;-87
2023/03/28 14:19:09;;;;;;;7.65;3.10;;;;;;;;;;5117287;28;20026;-87
2023/03/28 14:21:35;;;;;;;10.65;4.50;;;;;;;;;;5099751;28;20020;-86
2023/03/28 14:24:04;;;;;;;14.50;5.75;;;;;;;;;;5099887;28;20016;-86
2023/03/28 14:26:31;;;;;;;10.98;5.18;;;;;;;;;;5098872;28;20027;-86
2023/03/28 14:29:00;;;;;;;6.03;1.50;;;;;;;;;;5099339;28;20026;-88
2023/03/28 14:31:30;;;;;;;15.73;2.45;;;;;;;;;;5117803;28;20024;-86
2023/03/28 14:33:57;;;;;;;21.75;2.92;;;;;;;;;;5103005;28;20020;-87
2023/03/28 14:36:24;;;;;;;15.77;2.67;;;;;;;;;;5121244;28;20020;-87
2023/03/28 14:38:50;;;;;;;14.85;2.80;;;;;;;;;;5103007;28;20035;-87
2023/03/28 14:41:24;;;;;;;15.45;3.80;;;;;;;;;;5103314;28;20023;-86
2023/03/28 14:43:51;;;;;;;12.40;3.22;;;;;;;;;;5120961;28;20118;-86
2023/03/28 14:49:24;;;;;;;17.77;6.55;;;;;;;;;;5121433;28;20123;-87
2023/03/28 14:51:55;;;;;;;17.23;6.10;;;;;;;;;;5103239;28;20035;-86
2023/03/28 14:54:24;;;;;;;9.18;3.97;;;;;;;;;;5121024;28;20413;-87
2023/03/28 14:56:51;;;;;;;16.20;3.28;;;;;;;;;;5121081;28;20094;-86
2023/03/28 14:59:18;;;;;;;8.35;2.40;;;;;;;;;;5102657;28;20057;-87
2023/03/28 15:04:48;;;;;;;36.10;3.83;;;;;;;;;;5120641;28;20096;-86
2023/03/28 15:07:26;;;;;;;17.02;1.70;;;;;;;;;;5102523;28;20046;-89
2023/03/28 15:10:09;;;;;;;56.97;3.10;;;;;;;;;;5102413;28;20027;-87
2023/03/28 15:12:43;;;;;;;19.33;2.20;;;;;;;;;;5102266;28;20035;-87
2023/03/28 15:15:30;;;;;;;16.02;1.92;;;;;;;;;;5102549;28;20413;-88
2023/03/28 15:17:57;;;;;;;42.83;2.92;;;;;;;;;;5120330;28;20041;-87
2023/03/28 15:20:26;;;;;;;33.13;3.72;;;;;;;;;;5120733;28;20027;-87
2023/03/28 15:22:55;;;;;;;22.63;2.75;;;;;;;;;;5102381;28;20035;-87
2023/03/28 15:25:22;;;;;;;20.63;2.00;;;;;;;;;;5120683;28;20465;-87
2023/03/28 15:28:03;;;;;;;27.38;2.55;;;;;;;;;;5102428;28;20045;-86
2023/03/28 15:30:32;;;;;;;13.07;3.17;;;;;;;;;;5100085;28;20463;-88